Staunton, IN (47881)

6:29 AM EDT on August 28, 2016 (GMT -0400)
Walnut and Joseph | | Change Station

Elev 633 ft 39.52 °N, 87.12 °W | Updated 1 minute ago

Fog
Fog
71.1 °F
Feels Like 71.1 °F
N
0.0
Wind Variable Wind from ESE

Today
High -- | Low -- °F
--% Chance of Precip.
Yesterday
High -- | Low -- °F
Precip. -- in
Pressure 30.14 in
Visibility 0.5 miles
Clouds
Dew Point 70 °F
Humidity 98%
Rainfall 0.00 in
Snow Depth Not available.
7:13 AM 8:24 PM
Waning Crescent, 16% visible
SPECI KHUF 281018Z 00000KT 1/2SM R05/1600V2600FT FG VV001 21/19 A3014 RMK AO2 T02060194
Pressure 30.14 in
Visibility 0.5 miles
Clouds
Dew Point 70 °F
Humidity 98%
Rainfall 0.00 in
Snow Depth Not available.
7:13 AM 8:24 PM
Waning Crescent, 16% visible
SPECI KHUF 281018Z 00000KT 1/2SM R05/1600V2600FT FG VV001 21/19 A3014 RMK AO2 T02060194

10-Day Weather Forecast

Almanac

Astronomy

Aug. 28, 2016 Rise Set
Actual Time
Civil Twilight
Nautical Twilight
Astronomical Twilight
Moon
Length of Visible Light
Length of Day
Tomorrow will be .
, % of the Moon is Illuminated

Today's Extremes

State Highs State Lows

Community

WunderPhotos

Upload Photos

1,935,541 photos uploaded!

WunderBlog® & News

Nearby

Air Quality

  Air Quality AQ Index Pollutant
Not available.

Snow Depth

Station Depth Elevation

Earthquake Activity

City Distance Mag. Time & Date
Minimum magnitude displayed is 2.5.

Coastal Water Temperatures

Place Temperature

Stations

Nearby Weather Stations

Station Location Temp. Windchill Dew Point Humidity Wind Precip. Elev Updated Type
                   

Watches & Warnings

There are currently no watches in effect.